Time,TemperatureF,DewpointF,PressureIn,WindDirection,WindDirectionDegrees,WindSpeedMPH,WindSpeedGustMPH,Humidity,HourlyPrecipIn,Conditions,Clouds,dailyrainin,SoftwareType,DateUTC
2013-07-05 00:00:00,72.4,71.5,30.17,SE,135,0.0,4.0,97,0.09,,,-99.99,WeatherLink 6.0.0,2013-07-05 04:00:00,
2013-07-05 00:01:00,68.8,68.2,30.14,East,94,0.0,0.0,98,0.00,,,0.53,Wunderground v.1.15,2013-07-05 04:01:00,
2013-07-05 00:02:00,68.8,68.2,30.14,East,94,0.0,0.0,98,0.00,,,0.53,Wunderground v.1.15,2013-07-05 04:02:00,
2013-07-05 00:04:00,68.8,68.2,30.14,East,94,0.0,0.0,98,0.00,,,0.53,Wunderground v.1.15,2013-07-05 04:04:00,
2013-07-05 00:05:00,68.8,68.2,30.14,East,94,0.0,0.0,98,0.00,,,0.53,Wunderground v.1.15,2013-07-05 04:05:00,
2013-07-05 00:10:00,68.8,68.2,30.15,East,94,0.0,0.0,98,0.21,,,0.55,Wunderground v.1.15,2013-07-05 04:10:00,
2013-07-05 00:16:00,68.9,68.3,30.14,East,97,0.0,3.0,98,1.57,,,0.67,Wunderground v.1.15,2013-07-05 04:16:00,
2013-07-05 00:21:00,68.9,68.3,30.14,ESE,121,0.0,1.0,98,0.23,,,0.70,Wunderground v.1.15,2013-07-05 04:21:00,
2013-07-05 00:27:00,68.8,68.2,30.14,ESE,121,0.0,1.0,98,0.13,,,0.71,Wunderground v.1.15,2013-07-05 04:27:00,
2013-07-05 00:30:00,75.3,73.8,30.17,ESE,112,0.0,6.0,95,0.09,,,-99.99,WeatherLink 6.0.0,2013-07-05 04:30:00,
2013-07-05 00:33:00,68.9,68.3,30.14,ESE,121,0.0,0.0,98,0.08,,,0.71,Wunderground v.1.15,2013-07-05 04:33:00,
2013-07-05 00:39:00,68.8,68.2,30.14,ESE,121,0.0,0.0,98,0.04,,,0.71,Wunderground v.1.15,2013-07-05 04:39:00,
2013-07-05 00:44:00,68.8,68.2,30.14,ESE,121,0.0,0.0,98,0.00,,,0.71,Wunderground v.1.15,2013-07-05 04:44:00,
2013-07-05 00:49:00,68.7,68.1,30.14,ESE,121,0.0,0.0,98,0.00,,,0.71,Wunderground v.1.15,2013-07-05 04:49:00,
2013-07-05 00:55:00,68.7,68.1,30.14,ESE,121,0.0,0.0,98,0.00,,,0.71,Wunderground v.1.15,2013-07-05 04:55:00,
2013-07-05 01:00:00,76.0,74.1,30.17,SSE,157,0.0,4.0,94,0.00,,,-99.99,WeatherLink 6.0.0,2013-07-05 05:00:00,
2013-07-05 01:01:00,68.7,68.1,30.13,ESE,121,0.0,0.0,98,0.00,,,0.72,Wunderground v.1.15,2013-07-05 05:01:00,
2013-07-05 01:06:00,68.8,68.2,30.13,ESE,121,0.0,0.0,98,0.00,,,0.72,Wunderground v.1.15,2013-07-05 05:06:00,
2013-07-05 01:11:00,68.8,68.2,30.13,ESE,121,0.0,0.0,98,0.00,,,0.72,Wunderground v.1.15,2013-07-05 05:11:00,
2013-07-05 01:17:00,68.9,68.3,30.13,ESE,121,0.0,0.0,98,0.00,,,0.72,Wunderground v.1.15,2013-07-05 05:17:00,
2013-07-05 01:22:00,68.9,68.3,30.13,ESE,121,0.0,0.0,98,0.00,,,0.72,Wunderground v.1.15,2013-07-05 05:22:00,
2013-07-05 01:28:00,68.9,68.3,30.12,ESE,121,0.0,0.0,98,0.00,,,0.72,Wunderground v.1.15,2013-07-05 05:28:00,
2013-07-05 01:30:00,80.0,74.7,30.17,SE,135,1.0,6.0,84,0.00,,,-99.99,WeatherLink 6.0.0,2013-07-05 05:30:00,
2013-07-05 01:33:00,69.0,68.4,30.12,ESE,121,0.0,0.0,98,0.00,,,0.72,Wunderground v.1.15,2013-07-05 05:33:00,
2013-07-05 01:38:00,69.0,68.4,30.12,ESE,121,0.0,0.0,98,0.00,,,0.72,Wunderground v.1.15,2013-07-05 05:38:00,
2013-07-05 01:44:00,69.0,68.4,30.11,ESE,121,0.0,0.0,98,0.00,,,0.72,Wunderground v.1.15,2013-07-05 05:44:00,
2013-07-05 01:49:00,69.1,68.5,30.11,ESE,121,0.0,0.0,98,0.00,,,0.72,Wunderground v.1.15,2013-07-05 05:49:00,
2013-07-05 01:55:00,69.1,68.5,30.11,ESE,116,0.0,3.0,98,0.00,,,0.72,Wunderground v.1.15,2013-07-05 05:55:00,
2013-07-05 02:00:00,69.2,68.6,30.12,ESE,115,0.0,1.0,98,0.00,,,0.72,Wunderground v.1.15,2013-07-05 06:00:00,
2013-07-05 02:05:00,69.2,68.6,30.12,ESE,115,0.0,4.0,98,0.00,,,0.72,Wunderground v.1.15,2013-07-05 06:05:00,
2013-07-05 02:10:00,69.3,68.7,30.11,ESE,115,0.0,1.0,98,0.00,,,0.72,Wunderground v.1.15,2013-07-05 06:10:00,
2013-07-05 02:15:00,69.3,69.0,30.11,ESE,122,0.0,4.0,99,0.00,,,0.72,Wunderground v.1.15,2013-07-05 06:15:00,
2013-07-05 02:20:00,69.3,69.0,30.11,ESE,122,0.0,1.0,99,0.00,,,0.72,Wunderground v.1.15,2013-07-05 06:20:00,
2013-07-05 02:25:00,69.5,69.2,30.11,SE,139,0.0,5.0,99,0.00,,,0.73,Wunderground v.1.15,2013-07-05 06:25:00,
2013-07-05 02:30:00,69.6,69.0,30.11,SE,137,0.0,1.0,98,0.79,,,0.75,Wunderground v.1.15,2013-07-05 06:30:00,
2013-07-05 02:35:00,69.7,69.1,30.11,SE,138,0.0,1.0,98,0.36,,,0.79,Wunderground v.1.15,2013-07-05 06:35:00,
2013-07-05 02:40:00,69.9,69.6,30.11,SE,137,0.0,2.0,99,0.10,,,0.79,Wunderground v.1.15,2013-07-05 06:40:00,
2013-07-05 02:45:00,70.0,69.7,30.11,NNE,29,0.0,4.0,99,0.05,,,0.79,Wunderground v.1.15,2013-07-05 06:45:00,
2013-07-05 02:50:00,70.1,69.8,30.12,NNE,28,0.0,0.0,99,0.04,,,0.80,Wunderground v.1.15,2013-07-05 06:50:00,
2013-07-05 02:55:00,70.1,69.8,30.11,SSE,148,0.0,4.0,99,0.91,,,0.90,Wunderground v.1.15,2013-07-05 06:55:00,
2013-07-05 03:00:00,69.9,69.6,30.11,SSW,201,5.0,5.0,99,0.71,,,0.96,Wunderground v.1.15,2013-07-05 07:00:00,
2013-07-05 03:05:00,69.8,69.5,30.11,WSW,254,3.0,5.0,99,0.87,,,1.06,Wunderground v.1.15,2013-07-05 07:05:00,
2013-07-05 03:10:00,69.5,68.9,30.11,ESE,123,1.0,1.0,98,0.11,,,1.06,Wunderground v.1.15,2013-07-05 07:10:00,
2013-07-05 03:15:00,69.4,68.8,30.11,SE,126,0.0,2.0,98,0.06,,,1.06,Wunderground v.1.15,2013-07-05 07:15:00,
2013-07-05 03:20:00,69.3,68.7,30.11,SE,127,0.0,0.0,98,0.04,,,1.06,Wunderground v.1.15,2013-07-05 07:20:00,
2013-07-05 03:25:00,69.3,68.7,30.11,SE,128,0.0,1.0,98,0.00,,,1.06,Wunderground v.1.15,2013-07-05 07:25:00,
2013-07-05 03:30:00,69.3,68.7,30.11,SE,128,0.0,0.0,98,0.00,,,1.06,Wunderground v.1.15,2013-07-05 07:30:00,
2013-07-05 03:35:00,69.4,68.8,30.11,SE,128,0.0,0.0,98,0.00,,,1.06,Wunderground v.1.15,2013-07-05 07:35:00,
2013-07-05 03:40:00,69.5,68.9,30.11,SE,128,0.0,0.0,98,0.00,,,1.06,Wunderground v.1.15,2013-07-05 07:40:00,
2013-07-05 03:45:00,69.6,69.0,30.10,SE,128,0.0,0.0,98,0.00,,,1.06,Wunderground v.1.15,2013-07-05 07:45:00,
2013-07-05 03:50:00,69.7,69.1,30.11,SE,128,0.0,0.0,98,0.00,,,1.06,Wunderground v.1.15,2013-07-05 07:50:00,
2013-07-05 03:55:00,69.7,69.1,30.11,SE,128,0.0,0.0,98,0.00,,,1.06,Wunderground v.1.15,2013-07-05 07:55:00,
2013-07-05 04:00:00,69.7,69.1,30.11,SE,128,0.0,0.0,98,0.00,,,1.06,Wunderground v.1.15,2013-07-05 08:00:00,
2013-07-05 04:05:00,69.8,69.2,30.11,SE,128,0.0,0.0,98,0.00,,,1.07,Wunderground v.1.15,2013-07-05 08:05:00,
2013-07-05 04:10:00,69.8,69.5,30.11,SE,128,0.0,0.0,99,0.00,,,1.07,Wunderground v.1.15,2013-07-05 08:10:00,
2013-07-05 04:16:00,69.9,69.6,30.11,SE,128,0.0,0.0,99,0.00,,,1.07,Wunderground v.1.15,2013-07-05 08:16:00,
2013-07-05 04:21:00,70.0,69.7,30.11,SE,128,0.0,0.0,99,0.00,,,1.07,Wunderground v.1.15,2013-07-05 08:21:00,
2013-07-05 04:26:00,70.1,69.8,30.11,SE,128,0.0,1.0,99,0.00,,,1.07,Wunderground v.1.15,2013-07-05 08:26:00,
2013-07-05 04:30:00,83.6,76.0,30.12,SE,135,1.0,7.0,78,0.00,,,-99.99,WeatherLink 6.0.0,2013-07-05 08:30:00,
2013-07-05 04:31:00,70.2,69.9,30.11,SE,128,0.0,0.0,99,0.00,,,1.07,Wunderground v.1.15,2013-07-05 08:31:00,
2013-07-05 04:36:00,70.2,69.9,30.11,SE,128,0.0,0.0,99,0.00,,,1.07,Wunderground v.1.15,2013-07-05 08:36:00,
2013-07-05 04:41:00,70.3,70.0,30.11,SE,128,0.0,0.0,99,0.00,,,1.07,Wunderground v.1.15,2013-07-05 08:41:00,
2013-07-05 04:46:00,70.3,70.0,30.11,SE,128,0.0,0.0,99,0.00,,,1.07,Wunderground v.1.15,2013-07-05 08:46:00,
2013-07-05 04:51:00,70.3,70.0,30.11,SE,128,0.0,0.0,99,0.00,,,1.07,Wunderground v.1.15,2013-07-05 08:51:00,
2013-07-05 04:56:00,70.3,70.0,30.11,SE,128,0.0,0.0,99,0.00,,,1.07,Wunderground v.1.15,2013-07-05 08:56:00,
2013-07-05 05:00:00,86.2,75.7,30.11,ESE,112,1.0,9.0,71,0.00,,,-99.99,WeatherLink 6.0.0,2013-07-05 09:00:00,
2013-07-05 05:01:00,70.4,70.1,30.11,SE,128,0.0,0.0,99,0.00,,,1.07,Wunderground v.1.15,2013-07-05 09:01:00,
2013-07-05 05:07:00,70.4,70.1,30.11,SE,128,0.0,0.0,99,0.00,,,1.07,Wunderground v.1.15,2013-07-05 09:07:00,
2013-07-05 05:12:00,70.4,70.1,30.12,SE,128,0.0,0.0,99,0.00,,,1.07,Wunderground v.1.15,2013-07-05 09:12:00,
2013-07-05 05:17:00,70.4,70.1,30.11,SE,128,0.0,0.0,99,0.00,,,1.07,Wunderground v.1.15,2013-07-05 09:17:00,
2013-07-05 05:22:00,70.4,70.1,30.11,SE,128,0.0,0.0,99,0.00,,,1.07,Wunderground v.1.15,2013-07-05 09:22:00,
2013-07-05 05:27:00,70.3,70.0,30.11,SE,128,0.0,0.0,99,0.00,,,1.07,Wunderground v.1.15,2013-07-05 09:27:00,
2013-07-05 05:30:00,86.9,75.9,30.11,SE,135,1.0,7.0,70,0.00,,,-99.99,WeatherLink 6.0.0,2013-07-05 09:30:00,
2013-07-05 05:32:00,70.3,70.0,30.11,SE,128,0.0,0.0,99,0.00,,,1.07,Wunderground v.1.15,2013-07-05 09:32:00,
2013-07-05 05:37:00,70.3,70.0,30.12,SE,128,0.0,0.0,99,0.00,,,1.07,Wunderground v.1.15,2013-07-05 09:37:00,
2013-07-05 05:42:00,70.3,70.0,30.11,SE,128,0.0,0.0,99,0.00,,,1.07,Wunderground v.1.15,2013-07-05 09:42:00,
2013-07-05 05:47:00,70.3,70.0,30.11,SE,128,0.0,0.0,99,0.00,,,1.07,Wunderground v.1.15,2013-07-05 09:47:00,
2013-07-05 05:53:00,70.3,70.0,30.12,SE,128,0.0,0.0,99,0.00,,,1.07,Wunderground v.1.15,2013-07-05 09:53:00,
2013-07-05 05:58:00,70.3,70.0,30.12,SE,128,0.0,0.0,99,0.00,,,1.07,Wunderground v.1.15,2013-07-05 09:58:00,
2013-07-05 06:00:00,84.4,74.0,30.11,ESE,112,2.0,13.0,71,0.00,,,-99.99,WeatherLink 6.0.0,2013-07-05 10:00:00,
2013-07-05 06:03:00,70.3,70.0,30.12,SE,128,0.0,0.0,99,0.00,,,1.07,Wunderground v.1.15,2013-07-05 10:03:00,
2013-07-05 06:08:00,70.3,70.0,30.12,SE,128,0.0,0.0,99,0.00,,,1.07,Wunderground v.1.15,2013-07-05 10:08:00,
2013-07-05 06:13:00,70.4,70.1,30.12,SE,128,0.0,0.0,99,0.00,,,1.07,Wunderground v.1.15,2013-07-05 10:13:00,
2013-07-05 06:18:00,70.4,70.1,30.12,SE,128,0.0,1.0,99,0.00,,,1.07,Wunderground v.1.15,2013-07-05 10:18:00,
2013-07-05 06:24:00,70.5,70.2,30.12,SE,128,0.0,1.0,99,0.00,,,1.07,Wunderground v.1.15,2013-07-05 10:24:00,
2013-07-05 06:29:00,70.5,70.2,30.13,SE,128,0.0,1.0,99,0.00,,,1.07,Wunderground v.1.15,2013-07-05 10:29:00,
2013-07-05 06:30:00,76.2,72.0,30.14,ESE,112,4.0,13.0,87,0.04,,,-99.99,WeatherLink 6.0.0,2013-07-05 10:30:00,
2013-07-05 06:34:00,70.6,70.3,30.13,SE,128,0.0,0.0,99,0.00,,,1.07,Wunderground v.1.15,2013-07-05 10:34:00,
2013-07-05 06:39:00,70.6,70.3,30.13,East,101,0.0,4.0,99,0.00,,,1.07,Wunderground v.1.15,2013-07-05 10:39:00,
2013-07-05 06:44:00,70.7,70.4,30.13,East,101,1.0,3.0,99,0.00,,,1.07,Wunderground v.1.15,2013-07-05 10:44:00,
2013-07-05 06:49:00,70.8,70.5,30.13,SE,143,0.0,4.0,99,0.00,,,1.07,Wunderground v.1.15,2013-07-05 10:49:00,
2013-07-05 06:54:00,70.9,70.6,30.13,SE,128,0.0,4.0,99,0.00,,,1.07,Wunderground v.1.15,2013-07-05 10:54:00,
2013-07-05 07:00:00,71.1,70.8,30.13,SE,128,0.0,0.0,99,0.00,,,1.07,Wunderground v.1.15,2013-07-05 11:00:00,
2013-07-05 07:05:00,71.2,70.9,30.13,SE,146,0.0,2.0,99,0.00,,,1.07,Wunderground v.1.15,2013-07-05 11:05:00,
2013-07-05 07:10:00,71.3,71.0,30.14,ESE,109,0.0,1.0,99,0.00,,,1.07,Wunderground v.1.15,2013-07-05 11:10:00,
2013-07-05 07:15:00,71.3,71.0,30.13,ESE,109,0.0,3.0,99,0.00,,,1.07,Wunderground v.1.15,2013-07-05 11:15:00,
2013-07-05 07:21:00,71.4,71.1,30.14,South,180,0.0,1.0,99,0.00,,,1.07,Wunderground v.1.15,2013-07-05 11:21:00,
2013-07-05 07:26:00,71.5,71.2,30.14,South,178,1.0,1.0,99,0.00,,,1.07,Wunderground v.1.15,2013-07-05 11:26:00,
2013-07-05 07:30:00,72.8,71.6,30.14,SE,135,0.0,3.0,96,0.12,,,-99.99,WeatherLink 6.0.0,2013-07-05 11:30:00,
2013-07-05 07:31:00,71.6,71.3,30.14,ESE,103,0.0,6.0,99,0.00,,,1.08,Wunderground v.1.15,2013-07-05 11:31:00,
2013-07-05 07:36:00,71.6,71.3,30.14,ESE,119,0.0,6.0,99,0.00,,,1.08,Wunderground v.1.15,2013-07-05 11:36:00,
2013-07-05 07:42:00,71.7,71.4,30.15,ESE,112,0.0,2.0,99,0.06,,,1.09,Wunderground v.1.15,2013-07-05 11:42:00,
2013-07-05 07:47:00,71.7,71.4,30.15,SW,221,0.0,3.0,99,0.06,,,1.09,Wunderground v.1.15,2013-07-05 11:47:00,
2013-07-05 07:52:00,71.7,71.4,30.14,East,98,2.0,4.0,99,0.06,,,1.10,Wunderground v.1.15,2013-07-05 11:52:00,
2013-07-05 07:57:00,71.6,71.3,30.15,SSE,161,2.0,4.0,99,0.12,,,1.11,Wunderground v.1.15,2013-07-05 11:57:00,
2013-07-05 08:00:00,72.9,71.7,30.14,East,90,0.0,3.0,96,0.01,,,-99.99,WeatherLink 6.0.0,2013-07-05 12:00:00,
2013-07-05 08:02:00,71.5,71.2,30.15,ESE,106,0.0,3.0,99,0.06,,,1.11,Wunderground v.1.15,2013-07-05 12:02:00,
2013-07-05 08:07:00,71.4,71.1,30.15,ESE,121,0.0,6.0,99,0.04,,,1.11,Wunderground v.1.15,2013-07-05 12:07:00,
2013-07-05 08:12:00,71.3,71.0,30.15,SSE,149,3.0,9.0,99,0.00,,,1.11,Wunderground v.1.15,2013-07-05 12:12:00,
2013-07-05 08:17:00,71.3,71.0,30.15,ESE,121,0.0,9.0,99,0.00,,,1.11,Wunderground v.1.15,2013-07-05 12:17:00,
2013-07-05 08:22:00,71.3,71.0,30.15,SE,125,0.0,1.0,99,0.00,,,1.11,Wunderground v.1.15,2013-07-05 12:22:00,
2013-07-05 08:27:00,71.2,70.9,30.15,South,188,0.0,4.0,99,0.00,,,1.11,Wunderground v.1.15,2013-07-05 12:27:00,
2013-07-05 08:30:00,73.0,72.1,30.13,North,-999,0.0,0.0,97,0.01,,,-99.99,WeatherLink 6.0.0,2013-07-05 12:30:00,
2013-07-05 08:33:00,71.3,71.0,30.16,SE,138,1.0,4.0,99,0.00,,,1.11,Wunderground v.1.15,2013-07-05 12:33:00,
2013-07-05 08:38:00,71.3,71.0,30.16,ESE,113,0.0,5.0,99,0.00,,,1.12,Wunderground v.1.15,2013-07-05 12:38:00,
2013-07-05 08:43:00,71.5,70.9,30.16,SE,125,0.0,5.0,98,0.00,,,1.12,Wunderground v.1.15,2013-07-05 12:43:00,
2013-07-05 08:48:00,71.7,71.1,30.16,SE,144,1.0,5.0,98,0.00,,,1.12,Wunderground v.1.15,2013-07-05 12:48:00,
2013-07-05 08:54:00,72.1,71.5,30.16,SSE,152,1.0,5.0,98,0.00,,,1.12,Wunderground v.1.15,2013-07-05 12:54:00,
2013-07-05 08:59:00,72.8,72.2,30.16,South,169,1.0,5.0,98,0.00,,,1.12,Wunderground v.1.15,2013-07-05 12:59:00,
2013-07-05 09:00:00,72.7,71.5,30.14,SSW,202,0.0,2.0,96,0.01,,,-99.99,WeatherLink 6.0.0,2013-07-05 13:00:00,
2013-07-05 09:04:00,72.9,72.3,30.16,SSE,156,0.0,5.0,98,0.00,,,1.12,Wunderground v.1.15,2013-07-05 13:04:00,
2013-07-05 09:09:00,73.0,72.4,30.17,SE,138,0.0,6.0,98,0.00,,,1.12,Wunderground v.1.15,2013-07-05 13:09:00,
2013-07-05 09:14:00,73.2,72.6,30.16,ESE,119,4.0,6.0,98,0.00,,,1.12,Wunderground v.1.15,2013-07-05 13:14:00,
2013-07-05 09:19:00,73.4,72.5,30.17,SE,128,0.0,6.0,97,0.00,,,1.12,Wunderground v.1.15,2013-07-05 13:19:00,
2013-07-05 09:24:00,73.7,72.5,30.17,SE,137,4.0,4.0,96,0.00,,,1.12,Wunderground v.1.15,2013-07-05 13:24:00,
2013-07-05 09:29:00,73.6,72.1,30.17,SSW,196,1.0,9.0,95,0.00,,,1.12,Wunderground v.1.15,2013-07-05 13:29:00,
2013-07-05 09:30:00,72.1,70.9,30.14,SSW,202,0.0,1.0,96,0.00,,,-99.99,WeatherLink 6.0.0,2013-07-05 13:30:00,
2013-07-05 09:34:00,73.5,72.0,30.17,SE,138,0.0,5.0,95,0.00,,,1.12,Wunderground v.1.15,2013-07-05 13:34:00,
2013-07-05 09:39:00,73.5,72.0,30.17,SE,138,0.0,0.0,95,0.00,,,1.12,Wunderground v.1.15,2013-07-05 13:39:00,
2013-07-05 09:45:00,73.4,71.9,30.17,SE,138,0.0,0.0,95,0.00,,,1.12,Wunderground v.1.15,2013-07-05 13:45:00,
2013-07-05 09:50:00,73.2,71.7,30.17,SE,138,0.0,0.0,95,0.00,,,1.12,Wunderground v.1.15,2013-07-05 13:50:00,
2013-07-05 09:55:00,73.0,71.8,30.17,SE,138,0.0,1.0,96,0.00,,,1.12,Wunderground v.1.15,2013-07-05 13:55:00,
2013-07-05 10:00:00,72.8,71.6,30.17,SE,138,0.0,0.0,96,1.06,,,1.19,Wunderground v.1.15,2013-07-05 14:00:00,
2013-07-05 10:05:00,72.4,71.2,30.17,NE,55,0.0,4.0,96,0.30,,,1.21,Wunderground v.1.15,2013-07-05 14:05:00,
2013-07-05 10:10:00,72.4,71.5,30.17,NE,55,0.0,0.0,97,0.08,,,0.00,Wunderground v.1.15,2013-07-05 14:10:00,
2013-07-05 10:15:00,72.8,71.9,30.17,NE,55,0.0,0.0,97,0.05,,,0.00,Wunderground v.1.15,2013-07-05 14:15:00,
2013-07-05 10:22:00,73.5,72.6,30.17,SE,141,0.0,0.0,97,0.00,,,0.00,Wunderground v.1.15,2013-07-05 14:22:00,
2013-07-05 10:27:00,74.6,74.0,30.16,SE,141,1.0,1.0,98,0.00,,,0.00,Wunderground v.1.15,2013-07-05 14:27:00,
2013-07-05 10:30:00,70.7,69.8,30.13,SSW,202,0.0,1.0,97,0.00,,,-99.99,WeatherLink 6.0.0,2013-07-05 14:30:00,
2013-07-05 10:32:00,75.1,74.2,30.16,SE,129,0.0,2.0,97,0.00,,,0.00,Wunderground v.1.15,2013-07-05 14:32:00,
2013-07-05 10:37:00,75.4,74.2,30.17,SSE,167,0.0,4.0,96,0.00,,,0.00,Wunderground v.1.15,2013-07-05 14:37:00,
2013-07-05 10:42:00,75.2,73.4,30.17,SSE,148,0.0,2.0,94,0.00,,,0.00,Wunderground v.1.15,2013-07-05 14:42:00,
2013-07-05 10:47:00,75.0,73.2,30.17,SSE,149,0.0,2.0,94,0.00,,,0.00,Wunderground v.1.15,2013-07-05 14:47:00,
2013-07-05 10:52:00,74.9,73.1,30.17,SSE,149,0.0,0.0,94,0.00,,,0.00,Wunderground v.1.15,2013-07-05 14:52:00,
2013-07-05 10:58:00,74.5,72.7,30.17,SSE,149,0.0,1.0,94,0.00,,,0.00,Wunderground v.1.15,2013-07-05 14:58:00,
2013-07-05 11:00:00,70.0,69.1,30.14,North,-999,0.0,0.0,97,0.00,,,-99.99,WeatherLink 6.0.0,2013-07-05 15:00:00,
2013-07-05 11:04:00,74.9,73.4,30.17,SSE,149,0.0,0.0,95,0.00,,,0.00,Wunderground v.1.15,2013-07-05 15:04:00,
2013-07-05 11:09:00,75.8,73.9,30.17,SE,125,0.0,4.0,94,0.00,,,0.00,Wunderground v.1.15,2013-07-05 15:09:00,
2013-07-05 11:14:00,76.8,74.6,30.17,East,98,1.0,1.0,93,0.00,,,0.00,Wunderground v.1.15,2013-07-05 15:14:00,
2013-07-05 11:20:00,78.3,74.8,30.17,ESE,113,1.0,1.0,89,0.00,,,0.00,Wunderground v.1.15,2013-07-05 15:20:00,
2013-07-05 11:25:00,78.7,75.2,30.16,SE,134,3.0,5.0,89,0.00,,,0.00,Wunderground v.1.15,2013-07-05 15:25:00,
2013-07-05 11:29:00,79.5,75.6,30.16,ESE,121,0.0,1.0,88,0.00,,,0.00,Wunderground v.1.15,2013-07-05 15:29:00,
2013-07-05 11:30:00,79.5,75.6,30.16,ESE,121,0.0,1.0,88,0.00,,,0.00,Wunderground v.1.15,2013-07-05 15:30:00,
2013-07-05 11:35:00,79.8,75.6,30.17,NNE,29,0.0,3.0,87,0.00,,,0.00,Wunderground v.1.15,2013-07-05 15:35:00,
2013-07-05 11:40:00,80.0,74.4,30.17,ESE,123,1.0,1.0,83,0.00,,,0.00,Wunderground v.1.15,2013-07-05 15:40:00,
2013-07-05 11:45:00,80.0,74.7,30.17,SE,130,0.0,4.0,84,0.00,,,0.00,Wunderground v.1.15,2013-07-05 15:45:00,
2013-07-05 11:49:00,79.8,74.2,30.17,SE,139,0.0,1.0,83,0.00,,,0.00,Wunderground v.1.15,2013-07-05 15:49:00,
2013-07-05 11:55:00,79.5,73.9,30.17,NE,39,0.0,4.0,83,0.00,,,0.00,Wunderground v.1.15,2013-07-05 15:55:00,
2013-07-05 12:00:00,79.1,73.5,30.16,SE,142,4.0,6.0,83,0.00,,,0.00,Wunderground v.1.15,2013-07-05 16:00:00,
2013-07-05 12:05:00,79.5,74.9,30.16,SE,131,0.0,6.0,86,0.00,,,0.00,Wunderground v.1.15,2013-07-05 16:05:00,
2013-07-05 12:10:00,80.9,75.6,30.16,East,97,0.0,1.0,84,0.00,,,0.00,Wunderground v.1.15,2013-07-05 16:10:00,
2013-07-05 12:15:00,81.6,75.2,30.16,SE,128,0.0,5.0,81,0.00,,,0.00,Wunderground v.1.15,2013-07-05 16:15:00,
2013-07-05 12:20:00,82.1,74.6,30.16,SE,132,0.0,3.0,78,0.00,,,0.00,Wunderground v.1.15,2013-07-05 16:20:00,
2013-07-05 12:25:00,82.2,74.7,30.16,SSE,164,0.0,5.0,78,0.00,,,0.00,Wunderground v.1.15,2013-07-05 16:25:00,
2013-07-05 12:30:00,81.4,74.6,30.16,SSE,159,1.0,1.0,80,0.00,,,0.00,Wunderground v.1.15,2013-07-05 16:30:00,
2013-07-05 12:35:00,80.9,74.9,30.16,SE,141,0.0,3.0,82,0.00,,,0.00,Wunderground v.1.15,2013-07-05 16:35:00,
2013-07-05 12:40:00,80.8,75.2,30.16,ESE,118,0.0,0.0,83,0.00,,,0.00,Wunderground v.1.15,2013-07-05 16:40:00,
2013-07-05 12:45:00,81.0,75.3,30.16,South,169,0.0,1.0,83,0.00,,,0.00,Wunderground v.1.15,2013-07-05 16:45:00,
2013-07-05 12:50:00,80.7,75.1,30.16,East,94,0.0,1.0,83,0.00,,,0.00,Wunderground v.1.15,2013-07-05 16:50:00,
2013-07-05 12:55:00,81.8,76.1,30.16,ESE,109,0.0,7.0,83,0.00,,,0.00,Wunderground v.1.15,2013-07-05 16:55:00,
2013-07-05 13:00:00,82.3,75.5,30.16,East,100,4.0,4.0,80,0.00,,,0.00,Wunderground v.1.15,2013-07-05 17:00:00,
2013-07-05 13:05:00,82.7,75.9,30.15,SE,132,3.0,8.0,80,0.00,,,0.00,Wunderground v.1.15,2013-07-05 17:05:00,
2013-07-05 13:10:00,81.6,75.2,30.16,East,84,0.0,4.0,81,0.00,,,0.00,Wunderground v.1.15,2013-07-05 17:10:00,
2013-07-05 13:15:00,81.1,74.7,30.15,SE,130,2.0,4.0,81,0.00,,,0.00,Wunderground v.1.15,2013-07-05 17:15:00,
2013-07-05 13:20:00,81.2,74.8,30.16,East,97,4.0,9.0,81,0.00,,,0.00,Wunderground v.1.15,2013-07-05 17:20:00,
2013-07-05 13:25:00,81.4,74.3,30.15,South,174,2.0,9.0,79,0.00,,,0.00,Wunderground v.1.15,2013-07-05 17:25:00,
2013-07-05 13:30:00,81.6,74.8,30.15,ESE,107,0.0,6.0,80,0.00,,,0.00,Wunderground v.1.15,2013-07-05 17:30:00,
2013-07-05 13:35:00,82.4,76.3,30.14,East,94,1.0,6.0,82,0.00,,,0.00,Wunderground v.1.15,2013-07-05 17:35:00,
2013-07-05 13:40:00,83.6,76.4,30.14,ESE,105,2.0,5.0,79,0.00,,,0.00,Wunderground v.1.15,2013-07-05 17:40:00,
2013-07-05 13:45:00,83.4,75.4,30.14,ESE,113,1.0,5.0,77,0.00,,,0.00,Wunderground v.1.15,2013-07-05 17:45:00,
2013-07-05 13:51:00,82.6,74.3,30.15,SE,134,4.0,4.0,76,0.00,,,0.00,Wunderground v.1.15,2013-07-05 17:51:00,
2013-07-05 13:56:00,81.6,74.5,30.14,East,101,0.0,5.0,79,0.00,,,0.00,Wunderground v.1.15,2013-07-05 17:56:00,
2013-07-05 14:00:00,68.3,67.7,30.15,North,-999,0.0,0.0,98,0.00,,,-99.99,WeatherLink 6.0.0,2013-07-05 18:00:00,
2013-07-05 14:01:00,81.1,75.4,30.15,ESE,104,0.0,2.0,83,0.00,,,0.00,Wunderground v.1.15,2013-07-05 18:01:00,
2013-07-05 14:06:00,81.0,75.7,30.14,ESE,121,0.0,2.0,84,0.00,,,0.00,Wunderground v.1.15,2013-07-05 18:06:00,
2013-07-05 14:11:00,80.8,76.2,30.14,East,90,0.0,2.0,86,0.00,,,0.00,Wunderground v.1.15,2013-07-05 18:11:00,
2013-07-05 14:16:00,81.2,75.5,30.13,NW,315,0.0,3.0,83,0.00,,,0.00,Wunderground v.1.15,2013-07-05 18:16:00,
2013-07-05 14:21:00,81.0,76.1,30.13,SE,130,0.0,7.0,85,0.00,,,0.00,Wunderground v.1.15,2013-07-05 18:21:00,
2013-07-05 14:26:00,81.5,75.5,30.13,SE,136,0.0,7.0,82,0.00,,,0.00,Wunderground v.1.15,2013-07-05 18:26:00,
2013-07-05 14:30:00,68.8,68.5,30.14,North,-999,0.0,0.0,99,0.00,,,-99.99,WeatherLink 6.0.0,2013-07-05 18:30:00,
2013-07-05 14:31:00,82.1,74.9,30.13,SE,136,0.0,1.0,79,0.00,,,0.00,Wunderground v.1.15,2013-07-05 18:31:00,
2013-07-05 14:36:00,83.2,76.8,30.12,WSW,252,2.0,4.0,81,0.00,,,0.00,Wunderground v.1.15,2013-07-05 18:36:00,
2013-07-05 14:41:00,83.9,75.5,30.12,ESE,102,0.0,4.0,76,0.00,,,0.00,Wunderground v.1.15,2013-07-05 18:41:00,
2013-07-05 14:47:00,84.9,76.1,30.12,ESE,120,3.0,4.0,75,0.00,,,0.00,Wunderground v.1.15,2013-07-05 18:47:00,
2013-07-05 14:52:00,85.5,74.6,30.12,ESE,106,2.0,4.0,70,0.00,,,0.00,Wunderground v.1.15,2013-07-05 18:52:00,
2013-07-05 14:57:00,86.1,75.6,30.12,ESE,105,2.0,4.0,71,0.00,,,0.00,Wunderground v.1.15,2013-07-05 18:57:00,
2013-07-05 15:00:00,68.9,68.3,30.14,North,-999,0.0,0.0,98,0.00,,,-99.99,WeatherLink 6.0.0,2013-07-05 19:00:00,
2013-07-05 15:02:00,86.0,74.6,30.12,South,186,0.0,9.0,69,0.00,,,0.00,Wunderground v.1.15,2013-07-05 19:02:00,
2013-07-05 15:07:00,86.1,75.6,30.11,SSE,168,0.0,9.0,71,0.00,,,0.00,Wunderground v.1.15,2013-07-05 19:07:00,
2013-07-05 15:12:00,86.3,75.8,30.11,SSE,157,1.0,1.0,71,0.00,,,0.00,Wunderground v.1.15,2013-07-05 19:12:00,
2013-07-05 15:17:00,86.4,75.9,30.11,East,83,3.0,6.0,71,0.00,,,0.00,Wunderground v.1.15,2013-07-05 19:17:00,
2013-07-05 15:22:00,86.6,75.2,30.11,SE,132,0.0,1.0,69,0.00,,,0.00,Wunderground v.1.15,2013-07-05 19:22:00,
2013-07-05 15:27:00,86.1,75.2,30.12,ESE,121,0.0,2.0,70,0.00,,,0.00,Wunderground v.1.15,2013-07-05 19:27:00,
2013-07-05 15:30:00,69.0,68.7,30.13,North,-999,0.0,0.0,99,0.00,,,-99.99,WeatherLink 6.0.0,2013-07-05 19:30:00,
2013-07-05 15:32:00,85.6,75.5,30.11,SE,128,0.0,1.0,72,0.00,,,0.00,Wunderground v.1.15,2013-07-05 19:32:00,
2013-07-05 15:37:00,86.3,76.2,30.11,SE,137,3.0,4.0,72,0.00,,,0.00,Wunderground v.1.15,2013-07-05 19:37:00,
2013-07-05 15:42:00,87.1,75.3,30.11,ESE,106,0.0,5.0,68,0.00,,,0.00,Wunderground v.1.15,2013-07-05 19:42:00,
2013-07-05 15:47:00,87.6,75.7,30.10,SE,140,3.0,5.0,68,0.00,,,0.00,Wunderground v.1.15,2013-07-05 19:47:00,
2013-07-05 15:52:00,86.6,74.3,30.10,ESE,116,1.0,7.0,67,0.00,,,0.00,Wunderground v.1.15,2013-07-05 19:52:00,
2013-07-05 15:57:00,85.4,73.6,30.10,ESE,123,6.0,7.0,68,0.00,,,0.00,Wunderground v.1.15,2013-07-05 19:57:00,
2013-07-05 16:00:00,69.2,68.9,30.12,SSW,202,0.0,1.0,99,0.00,,,-99.99,WeatherLink 6.0.0,2013-07-05 20:00:00,
2013-07-05 16:02:00,84.8,74.8,30.11,ESE,121,0.0,5.0,72,0.00,,,0.00,Wunderground v.1.15,2013-07-05 20:02:00,
2013-07-05 16:07:00,85.0,75.4,30.11,SSE,156,6.0,6.0,73,0.00,,,0.00,Wunderground v.1.15,2013-07-05 20:07:00,
2013-07-05 16:12:00,83.2,73.2,30.11,ESE,118,2.0,11.0,72,0.00,,,0.00,Wunderground v.1.15,2013-07-05 20:12:00,
2013-07-05 16:13:00,82.6,73.5,30.11,ESE,118,8.0,11.0,74,0.00,,,0.00,Wunderground v.1.15,2013-07-05 20:13:00,
2013-07-05 16:18:00,80.7,72.4,30.11,SSE,151,1.0,11.0,76,0.00,,,0.00,Wunderground v.1.15,2013-07-05 20:18:00,
2013-07-05 16:23:00,79.6,72.1,30.11,SE,126,3.0,7.0,78,0.00,,,0.00,Wunderground v.1.15,2013-07-05 20:23:00,
2013-07-05 16:28:00,79.0,71.9,30.12,East,96,5.0,13.0,79,0.00,,,0.00,Wunderground v.1.15,2013-07-05 20:28:00,
2013-07-05 16:30:00,69.3,69.0,30.12,North,-999,0.0,0.0,99,0.00,,,-99.99,WeatherLink 6.0.0,2013-07-05 20:30:00,
2013-07-05 16:33:00,77.8,72.2,30.13,East,90,5.0,11.0,83,0.00,,,0.01,Wunderground v.1.15,2013-07-05 20:33:00,
2013-07-05 16:38:00,76.6,72.1,30.14,SE,136,6.0,11.0,86,0.47,,,0.04,Wunderground v.1.15,2013-07-05 20:38:00,
2013-07-05 16:39:00,76.6,72.1,30.14,East,91,4.0,11.0,86,0.47,,,0.04,Wunderground v.1.15,2013-07-05 20:39:00,
2013-07-05 16:44:00,75.5,72.0,30.14,East,96,1.0,4.0,89,0.58,,,0.06,Wunderground v.1.15,2013-07-05 20:44:00,
2013-07-05 16:49:00,74.7,71.9,30.14,East,94,2.0,4.0,91,0.26,,,0.09,Wunderground v.1.15,2013-07-05 20:49:00,
2013-07-05 16:54:00,74.0,71.5,30.13,SE,134,0.0,8.0,92,0.21,,,0.11,Wunderground v.1.15,2013-07-05 20:54:00,
2013-07-05 16:59:00,73.6,71.4,30.13,SE,129,0.0,8.0,93,0.18,,,0.12,Wunderground v.1.15,2013-07-05 20:59:00,
2013-07-05 17:00:00,69.3,69.0,30.11,North,-999,0.0,0.0,99,0.00,,,-99.99,WeatherLink 6.0.0,2013-07-05 21:00:00,
2013-07-05 17:04:00,73.3,71.5,30.13,ESE,117,1.0,3.0,94,0.24,,,0.14,Wunderground v.1.15,2013-07-05 21:04:00,
2013-07-05 17:09:00,73.2,71.7,30.13,South,183,0.0,5.0,95,0.16,,,0.15,Wunderground v.1.15,2013-07-05 21:09:00,
2013-07-05 17:14:00,73.0,71.5,30.13,SE,134,0.0,2.0,95,0.09,,,0.16,Wunderground v.1.15,2013-07-05 21:14:00,
2013-07-05 17:19:00,72.9,71.7,30.13,South,180,0.0,2.0,96,0.08,,,0.16,Wunderground v.1.15,2013-07-05 21:19:00,
2013-07-05 17:24:00,72.9,71.4,30.14,SSE,159,0.0,3.0,95,0.05,,,0.16,Wunderground v.1.15,2013-07-05 21:24:00,
2013-07-05 17:29:00,72.8,71.6,30.13,SSE,159,0.0,3.0,96,0.00,,,0.16,Wunderground v.1.15,2013-07-05 21:29:00,
2013-07-05 17:30:00,69.3,69.0,30.11,North,-999,0.0,0.0,99,0.00,,,-99.99,WeatherLink 6.0.0,2013-07-05 21:30:00,
2013-07-05 17:34:00,72.8,71.6,30.14,ESE,102,0.0,2.0,96,0.00,,,0.16,Wunderground v.1.15,2013-07-05 21:34:00,
2013-07-05 17:39:00,72.8,71.6,30.14,East,101,0.0,2.0,96,0.00,,,0.16,Wunderground v.1.15,2013-07-05 21:39:00,
2013-07-05 17:44:00,72.6,71.1,30.14,SSW,197,0.0,3.0,95,0.00,,,0.16,Wunderground v.1.15,2013-07-05 21:44:00,
2013-07-05 17:45:00,72.6,71.1,30.14,SSW,197,0.0,3.0,95,0.00,,,0.16,Wunderground v.1.15,2013-07-05 21:45:00,
2013-07-05 17:50:00,72.5,71.3,30.14,SSW,197,0.0,0.0,96,0.00,,,0.16,Wunderground v.1.15,2013-07-05 21:50:00,
2013-07-05 17:55:00,72.7,71.5,30.14,SSW,197,0.0,1.0,96,0.00,,,0.16,Wunderground v.1.15,2013-07-05 21:55:00,
2013-07-05 18:00:00,72.8,71.6,30.14,SSW,196,0.0,0.0,96,0.00,,,0.16,Wunderground v.1.15,2013-07-05 22:00:00,
2013-07-05 18:05:00,72.8,71.6,30.14,SSW,197,0.0,0.0,96,0.00,,,0.16,Wunderground v.1.15,2013-07-05 22:05:00,
2013-07-05 18:10:00,72.9,71.7,30.14,SSW,197,0.0,0.0,96,0.00,,,0.16,Wunderground v.1.15,2013-07-05 22:10:00,
2013-07-05 18:15:00,72.9,71.7,30.13,SSW,197,0.0,0.0,96,0.00,,,0.16,Wunderground v.1.15,2013-07-05 22:15:00,
2013-07-05 18:20:00,72.9,71.7,30.13,SSW,196,0.0,0.0,96,0.00,,,0.17,Wunderground v.1.15,2013-07-05 22:20:00,
2013-07-05 18:25:00,73.0,71.8,30.13,SSW,196,0.0,0.0,96,0.00,,,0.17,Wunderground v.1.15,2013-07-05 22:25:00,
2013-07-05 18:30:00,73.0,71.8,30.13,SSW,197,0.0,0.0,96,0.00,,,0.17,Wunderground v.1.15,2013-07-05 22:30:00,
2013-07-05 18:35:00,73.0,72.1,30.13,SSW,196,0.0,0.0,97,0.00,,,0.17,Wunderground v.1.15,2013-07-05 22:35:00,
2013-07-05 18:40:00,73.0,72.1,30.13,SSW,196,0.0,0.0,97,0.00,,,0.17,Wunderground v.1.15,2013-07-05 22:40:00,
2013-07-05 18:45:00,73.0,72.1,30.13,SSW,197,0.0,1.0,97,0.00,,,0.17,Wunderground v.1.15,2013-07-05 22:45:00,
2013-07-05 18:50:00,73.1,72.2,30.13,SSW,197,0.0,0.0,97,0.00,,,0.17,Wunderground v.1.15,2013-07-05 22:50:00,
2013-07-05 18:55:00,73.1,72.2,30.13,SSW,197,0.0,2.0,97,0.00,,,0.17,Wunderground v.1.15,2013-07-05 22:55:00,
2013-07-05 19:00:00,73.1,72.2,30.14,SSW,196,0.0,0.0,97,0.00,,,0.17,Wunderground v.1.15,2013-07-05 23:00:00,
2013-07-05 19:05:00,72.9,71.7,30.14,SSW,197,0.0,0.0,96,0.00,,,0.17,Wunderground v.1.15,2013-07-05 23:05:00,
2013-07-05 19:10:00,72.7,71.5,30.14,SSW,197,0.0,0.0,96,0.00,,,0.17,Wunderground v.1.15,2013-07-05 23:10:00,
2013-07-05 19:15:00,72.6,71.4,30.14,SSW,196,0.0,0.0,96,0.00,,,0.17,Wunderground v.1.15,2013-07-05 23:15:00,
2013-07-05 19:20:00,72.5,71.3,30.14,SSW,196,0.0,0.0,96,0.00,,,0.17,Wunderground v.1.15,2013-07-05 23:20:00,
2013-07-05 19:25:00,72.5,71.6,30.14,SSW,197,0.0,0.0,97,0.00,,,0.17,Wunderground v.1.15,2013-07-05 23:25:00,
2013-07-05 19:30:00,72.4,71.5,30.14,SSW,196,0.0,0.0,97,0.00,,,0.17,Wunderground v.1.15,2013-07-05 23:30:00,
2013-07-05 19:36:00,72.3,71.4,30.14,SSW,197,0.0,1.0,97,0.00,,,0.17,Wunderground v.1.15,2013-07-05 23:36:00,
2013-07-05 19:41:00,72.1,70.9,30.14,SSW,196,0.0,0.0,96,0.00,,,0.17,Wunderground v.1.15,2013-07-05 23:41:00,
2013-07-05 19:46:00,71.9,70.7,30.14,SSW,196,0.0,0.0,96,0.00,,,0.17,Wunderground v.1.15,2013-07-05 23:46:00,
2013-07-05 19:51:00,71.8,70.6,30.14,SSW,197,0.0,0.0,96,0.00,,,0.17,Wunderground v.1.15,2013-07-05 23:51:00,
2013-07-05 19:56:00,71.6,70.7,30.14,SSW,197,0.0,0.0,97,0.00,,,0.17,Wunderground v.1.15,2013-07-05 23:56:00,
2013-07-05 20:00:00,70.2,69.9,30.13,SE,135,0.0,3.0,99,0.00,,,-99.99,WeatherLink 6.0.0,2013-07-06 00:00:00,
2013-07-05 20:01:00,71.4,70.2,30.14,SSW,197,0.0,0.0,96,0.00,,,0.17,Wunderground v.1.15,2013-07-06 00:01:00,
2013-07-05 20:06:00,71.3,70.1,30.14,SSW,197,0.0,0.0,96,0.00,,,0.17,Wunderground v.1.15,2013-07-06 00:06:00,
2013-07-05 20:11:00,71.3,70.4,30.13,SSW,197,0.0,0.0,97,0.00,,,0.17,Wunderground v.1.15,2013-07-06 00:11:00,
2013-07-05 20:16:00,71.1,70.2,30.13,SSW,197,0.0,1.0,97,0.00,,,0.17,Wunderground v.1.15,2013-07-06 00:16:00,
2013-07-05 20:21:00,71.1,70.2,30.13,SSW,197,0.0,0.0,97,0.00,,,0.17,Wunderground v.1.15,2013-07-06 00:21:00,
2013-07-05 20:26:00,70.9,70.0,30.13,SSW,196,0.0,0.0,97,0.00,,,0.17,Wunderground v.1.15,2013-07-06 00:26:00,
2013-07-05 20:30:00,70.3,70.0,30.14,ESE,112,0.0,3.0,99,0.01,,,-99.99,WeatherLink 6.0.0,2013-07-06 00:30:00,
2013-07-05 20:31:00,70.8,69.9,30.13,SSW,197,0.0,0.0,97,0.00,,,0.17,Wunderground v.1.15,2013-07-06 00:31:00,
2013-07-05 20:36:00,70.7,69.8,30.13,SSW,197,0.0,0.0,97,0.00,,,0.17,Wunderground v.1.15,2013-07-06 00:36:00,
2013-07-05 20:41:00,70.7,69.8,30.13,SSW,196,0.0,0.0,97,0.00,,,0.17,Wunderground v.1.15,2013-07-06 00:41:00,
2013-07-05 20:46:00,70.6,69.7,30.13,SSW,197,0.0,0.0,97,0.00,,,0.17,Wunderground v.1.15,2013-07-06 00:46:00,
2013-07-05 20:51:00,70.4,69.5,30.13,SSW,197,0.0,0.0,97,0.00,,,0.17,Wunderground v.1.15,2013-07-06 00:51:00,
2013-07-05 20:56:00,70.4,69.5,30.13,SSW,197,0.0,0.0,97,0.00,,,0.17,Wunderground v.1.15,2013-07-06 00:56:00,
2013-07-05 21:00:00,70.5,70.2,30.15,SE,135,0.0,5.0,99,0.01,,,-99.99,WeatherLink 6.0.0,2013-07-06 01:00:00,
2013-07-05 21:01:00,70.3,69.4,30.14,SSW,197,0.0,0.0,97,0.00,,,0.17,Wunderground v.1.15,2013-07-06 01:01:00,
2013-07-05 21:06:00,70.1,69.2,30.14,SSW,197,0.0,0.0,97,0.00,,,0.17,Wunderground v.1.15,2013-07-06 01:06:00,
2013-07-05 21:11:00,70.0,69.1,30.14,SSW,197,0.0,0.0,97,0.00,,,0.17,Wunderground v.1.15,2013-07-06 01:11:00,
2013-07-05 21:16:00,69.9,69.0,30.15,SSW,196,0.0,0.0,97,0.00,,,0.17,Wunderground v.1.15,2013-07-06 01:16:00,
2013-07-05 21:21:00,69.9,69.3,30.14,SSW,196,0.0,0.0,98,0.00,,,0.17,Wunderground v.1.15,2013-07-06 01:21:00,
2013-07-05 21:26:00,69.8,69.2,30.15,SSW,197,0.0,0.0,98,0.00,,,0.17,Wunderground v.1.15,2013-07-06 01:26:00,
2013-07-05 21:30:00,70.7,70.4,30.15,SE,135,0.0,5.0,99,0.00,,,-99.99,WeatherLink 6.0.0,2013-07-06 01:30:00,
2013-07-05 21:31:00,69.9,69.3,30.15,SSW,196,0.0,0.0,98,0.00,,,0.17,Wunderground v.1.15,2013-07-06 01:31:00,
2013-07-05 21:36:00,69.8,69.2,30.16,SSW,197,0.0,0.0,98,0.00,,,0.17,Wunderground v.1.15,2013-07-06 01:36:00,
2013-07-05 21:41:00,69.6,68.7,30.15,SSW,197,0.0,0.0,97,0.00,,,0.17,Wunderground v.1.15,2013-07-06 01:41:00,
2013-07-05 21:46:00,69.6,68.7,30.15,SSW,197,0.0,0.0,97,0.00,,,0.17,Wunderground v.1.15,2013-07-06 01:46:00,
2013-07-05 21:51:00,69.4,68.5,30.16,SSW,196,0.0,0.0,97,0.00,,,0.17,Wunderground v.1.15,2013-07-06 01:51:00,
2013-07-05 21:56:00,69.2,68.6,30.16,SSW,197,0.0,0.0,98,0.00,,,0.17,Wunderground v.1.15,2013-07-06 01:56:00,
2013-07-05 22:00:00,71.3,71.0,30.15,SE,135,0.0,5.0,99,0.00,,,-99.99,WeatherLink 6.0.0,2013-07-06 02:00:00,
2013-07-05 22:01:00,69.1,68.5,30.16,SSW,197,0.0,0.0,98,0.00,,,0.17,Wunderground v.1.15,2013-07-06 02:01:00,
2013-07-05 22:06:00,69.0,68.4,30.16,SSW,197,0.0,0.0,98,0.00,,,0.17,Wunderground v.1.15,2013-07-06 02:06:00,
2013-07-05 22:11:00,69.1,68.5,30.16,SSW,196,0.0,0.0,98,0.00,,,0.17,Wunderground v.1.15,2013-07-06 02:11:00,
2013-07-05 22:12:00,69.1,68.5,30.16,SSW,196,0.0,0.0,98,0.00,,,0.17,Wunderground v.1.15,2013-07-06 02:12:00,
2013-07-05 22:17:00,69.0,68.4,30.17,SSW,197,0.0,0.0,98,0.00,,,0.17,Wunderground v.1.15,2013-07-06 02:17:00,
2013-07-05 22:22:00,69.0,68.4,30.16,SSW,197,0.0,0.0,98,0.00,,,0.17,Wunderground v.1.15,2013-07-06 02:22:00,
2013-07-05 22:27:00,68.9,68.3,30.17,SSW,196,0.0,0.0,98,0.00,,,0.17,Wunderground v.1.15,2013-07-06 02:27:00,
2013-07-05 22:30:00,72.2,71.6,30.16,ESE,112,1.0,6.0,98,0.00,,,-99.99,WeatherLink 6.0.0,2013-07-06 02:30:00,
2013-07-05 22:32:00,68.9,68.3,30.17,SSW,197,0.0,0.0,98,0.00,,,0.17,Wunderground v.1.15,2013-07-06 02:32:00,
2013-07-05 22:37:00,68.9,68.3,30.16,SSW,197,0.0,0.0,98,0.00,,,0.17,Wunderground v.1.15,2013-07-06 02:37:00,
2013-07-05 22:42:00,68.8,68.2,30.17,SSW,196,0.0,0.0,98,0.00,,,0.17,Wunderground v.1.15,2013-07-06 02:42:00,
2013-07-05 22:43:00,68.8,68.2,30.17,SSW,197,0.0,0.0,98,0.00,,,0.17,Wunderground v.1.15,2013-07-06 02:43:00,
2013-07-05 22:48:00,68.7,68.1,30.16,SSW,196,0.0,0.0,98,0.00,,,0.17,Wunderground v.1.15,2013-07-06 02:48:00,
2013-07-05 22:53:00,68.7,68.1,30.16,SSW,196,0.0,0.0,98,0.00,,,0.17,Wunderground v.1.15,2013-07-06 02:53:00,
2013-07-05 22:58:00,68.6,68.0,30.16,SSW,197,0.0,0.0,98,0.00,,,0.17,Wunderground v.1.15,2013-07-06 02:58:00,
2013-07-05 23:00:00,74.4,72.9,30.16,SE,135,1.0,6.0,95,0.00,,,-99.99,WeatherLink 6.0.0,2013-07-06 03:00:00,
2013-07-05 23:03:00,68.6,68.0,30.16,SSW,197,0.0,0.0,98,0.00,,,0.17,Wunderground v.1.15,2013-07-06 03:03:00,
2013-07-05 23:08:00,68.5,67.9,30.16,SSW,197,0.0,0.0,98,0.00,,,0.17,Wunderground v.1.15,2013-07-06 03:08:00,
2013-07-05 23:13:00,68.4,67.8,30.15,SSW,197,0.0,0.0,98,0.00,,,0.17,Wunderground v.1.15,2013-07-06 03:13:00,
2013-07-05 23:18:00,68.3,67.7,30.15,SSW,197,0.0,0.0,98,0.00,,,0.17,Wunderground v.1.15,2013-07-06 03:18:00,
2013-07-05 23:23:00,68.2,67.6,30.14,SSW,197,0.0,0.0,98,0.00,,,0.17,Wunderground v.1.15,2013-07-06 03:23:00,
2013-07-05 23:28:00,68.1,67.5,30.15,SSW,197,0.0,0.0,98,0.00,,,0.17,Wunderground v.1.15,2013-07-06 03:28:00,
2013-07-05 23:30:00,74.4,71.9,30.16,SE,135,0.0,5.0,92,0.00,,,-99.99,WeatherLink 6.0.0,2013-07-06 03:30:00,
2013-07-05 23:33:00,68.0,67.4,30.14,SSW,196,0.0,0.0,98,0.00,,,0.17,Wunderground v.1.15,2013-07-06 03:33:00,
2013-07-05 23:38:00,68.1,67.5,30.15,SSW,196,0.0,0.0,98,0.00,,,0.17,Wunderground v.1.15,2013-07-06 03:38:00,
2013-07-05 23:43:00,68.0,67.4,30.15,SSW,197,0.0,0.0,98,0.00,,,0.17,Wunderground v.1.15,2013-07-06 03:43:00,
2013-07-05 23:48:00,67.9,67.3,30.15,SSW,197,0.0,0.0,98,0.00,,,0.17,Wunderground v.1.15,2013-07-06 03:48:00,
2013-07-05 23:53:00,67.9,67.3,30.15,SSW,197,0.0,0.0,98,0.00,,,0.17,Wunderground v.1.15,2013-07-06 03:53:00,
2013-07-05 23:58:00,68.0,67.4,30.15,SSW,197,0.0,0.0,98,0.00,,,0.17,Wunderground v.1.15,2013-07-06 03:58:00,